createdAt,value
2019-06-01T00:00:20.009Z,17.19
2019-06-01T00:02:56.124Z,17.22
2019-06-01T00:05:24.030Z,17.23
2019-06-01T00:07:55.057Z,17.24
2019-06-01T00:10:26.083Z,17.24
2019-06-01T00:12:57.102Z,17.25
2019-06-01T00:15:28.226Z,17.26
2019-06-01T00:17:59.152Z,17.28
2019-06-01T00:20:30.173Z,17.29
2019-06-01T00:23:01.102Z,17.24
2019-06-01T00:25:32.110Z,17.16
2019-06-01T00:28:03.250Z,17.05
2019-06-01T00:30:34.240Z,16.99
2019-06-01T00:33:05.284Z,16.98
2019-06-01T00:35:36.297Z,17.01
2019-06-01T00:38:07.342Z,17.06
2019-06-01T00:40:38.274Z,17.09
2019-06-01T00:43:09.203Z,17.13
2019-06-01T00:45:40.606Z,17.18
2019-06-01T00:48:11.692Z,17.22
2019-06-01T00:50:43.139Z,17.24
2019-06-01T00:53:14.385Z,17.27
2019-06-01T00:55:47.362Z,17.34
2019-06-01T00:58:18.399Z,17.40
2019-06-01T01:00:51.099Z,17.47
2019-06-01T01:03:22.319Z,17.53
2019-06-01T01:05:53.287Z,17.58
2019-06-01T01:08:24.551Z,17.59
2019-06-01T01:10:55.502Z,17.61
2019-06-01T01:13:27.069Z,17.57
2019-06-01T01:15:58.193Z,17.55
2019-06-01T01:18:30.061Z,17.54
2019-06-01T01:21:01.071Z,17.50
2019-06-01T01:23:32.016Z,17.41
2019-06-01T01:26:03.534Z,17.35
2019-06-01T01:28:34.609Z,17.30
2019-06-01T01:31:13.415Z,17.29
2019-06-01T01:33:38.379Z,17.29
2019-06-01T01:36:09.392Z,17.31
2019-06-01T01:38:40.639Z,17.32
2019-06-01T01:41:11.519Z,17.32
2019-06-01T01:43:42.686Z,17.27
2019-06-01T01:46:13.703Z,17.22
2019-06-01T01:48:44.719Z,17.15
2019-06-01T01:51:15.619Z,17.12
2019-06-01T01:53:46.664Z,17.11
2019-06-01T01:56:17.624Z,17.11
2019-06-01T01:58:48.687Z,17.07
2019-06-01T02:01:22.850Z,17.02
2019-06-01T02:03:53.670Z,16.92
2019-06-01T02:06:28.956Z,16.82
2019-06-01T02:08:59.343Z,16.75
2019-06-01T02:11:30.412Z,16.72
2019-06-01T02:14:02.121Z,16.72
2019-06-01T02:16:33.384Z,16.76
2019-06-01T02:19:04.420Z,16.79
2019-06-01T02:21:35.310Z,16.81
2019-06-01T02:24:06.370Z,16.81
2019-06-01T02:26:37.465Z,16.77
2019-06-01T02:29:08.411Z,16.71
2019-06-01T02:31:42.385Z,16.67
2019-06-01T02:34:12.391Z,16.66
2019-06-01T02:36:43.250Z,16.68
2019-06-01T02:39:15.180Z,16.71
2019-06-01T02:41:46.292Z,16.76
2019-06-01T02:44:17.311Z,16.78
2019-06-01T02:46:48.233Z,16.82
2019-06-01T02:49:19.146Z,16.83
2019-06-01T02:51:50.034Z,16.78
2019-06-01T02:54:21.168Z,16.71
2019-06-01T02:56:52.309Z,16.65
2019-06-01T02:59:23.351Z,16.57
2019-06-01T03:01:58.205Z,16.51
2019-06-01T03:04:28.208Z,16.47
2019-06-01T03:06:59.594Z,16.43
2019-06-01T03:09:32.599Z,16.40
2019-06-01T03:12:04.369Z,16.40
2019-06-01T03:14:37.933Z,16.35
2019-06-01T03:17:12.655Z,16.32
2019-06-01T03:19:47.434Z,16.30
2019-06-01T03:22:21.434Z,16.35
2019-06-01T03:24:56.217Z,16.36
2019-06-01T03:27:28.923Z,16.39
2019-06-01T03:30:05.806Z,16.40
2019-06-01T03:32:37.507Z,16.42
2019-06-01T03:35:10.737Z,16.47
2019-06-01T03:37:41.741Z,16.51
2019-06-01T03:40:23.143Z,16.58
2019-06-01T03:42:45.914Z,16.56
2019-06-01T03:45:17.046Z,16.51
2019-06-01T03:47:48.082Z,16.45
2019-06-01T03:50:19.015Z,16.39
2019-06-01T03:52:50.120Z,16.39
2019-06-01T03:55:21.034Z,16.42
2019-06-01T03:57:52.047Z,16.52
2019-06-01T04:00:23.091Z,16.63
2019-06-01T04:02:53.993Z,16.72
2019-06-01T04:05:25.055Z,16.71
2019-06-01T04:07:56.105Z,16.73
2019-06-01T04:10:27.155Z,16.80
2019-06-01T04:12:58.275Z,16.87
2019-06-01T04:15:29.416Z,16.84
2019-06-01T04:18:01.845Z,16.82
2019-06-01T04:20:33.020Z,16.80
2019-06-01T04:23:04.570Z,16.85
2019-06-01T04:25:35.911Z,16.94
2019-06-01T04:28:14.405Z,17.11
2019-06-01T04:30:45.214Z,17.22
2019-06-01T04:33:16.258Z,17.32
2019-06-01T04:35:47.299Z,17.30
2019-06-01T04:38:18.193Z,17.24
2019-06-01T04:40:49.152Z,17.16
2019-06-01T04:43:20.113Z,17.18
2019-06-01T04:45:51.035Z,17.23
2019-06-01T04:48:22.038Z,17.31
2019-06-01T04:50:53.321Z,17.39
2019-06-01T04:53:24.418Z,17.45
2019-06-01T04:55:55.556Z,17.48
2019-06-01T04:58:26.544Z,17.52
2019-06-01T05:00:57.479Z,17.60
2019-06-01T05:03:28.489Z,17.80
2019-06-01T05:05:59.634Z,17.95
2019-06-01T05:08:30.527Z,18.09
2019-06-01T05:11:05.078Z,18.23
2019-06-01T05:13:34.271Z,18.39
2019-06-01T05:16:05.900Z,18.59
2019-06-01T05:18:37.002Z,18.81
2019-06-01T05:21:08.465Z,19.03
2019-06-01T05:23:39.423Z,19.16
2019-06-01T05:26:10.948Z,19.37
2019-06-01T05:28:42.043Z,19.57
2019-06-01T05:31:20.448Z,19.76
2019-06-01T05:33:45.791Z,19.93
2019-06-01T05:36:16.770Z,20.07
2019-06-01T05:38:47.715Z,20.23
2019-06-01T05:41:19.923Z,20.26
2019-06-01T05:43:50.978Z,20.20
2019-06-01T05:46:22.329Z,20.15
2019-06-01T05:48:53.327Z,20.13
2019-06-01T05:51:24.247Z,20.00
2019-06-01T05:53:55.159Z,19.94
2019-06-01T05:56:26.198Z,19.95
2019-06-01T05:58:57.310Z,19.95
2019-06-01T06:01:28.239Z,19.94
2019-06-01T06:03:59.143Z,20.00
2019-06-01T06:06:30.099Z,20.05
2019-06-01T06:09:01.086Z,20.07
2019-06-01T06:11:32.036Z,20.10
2019-06-01T06:14:03.533Z,20.17
2019-06-01T06:16:34.471Z,20.26
2019-06-01T06:19:05.497Z,20.33
2019-06-01T06:21:36.422Z,20.50
2019-06-01T06:24:07.327Z,20.71
2019-06-01T06:26:38.263Z,20.97
2019-06-01T06:29:09.164Z,21.19
2019-06-01T06:31:40.115Z,21.39
2019-06-01T06:34:11.019Z,21.60
2019-06-01T06:36:41.904Z,21.82
2019-06-01T06:39:13.655Z,22.06
2019-06-01T06:41:44.878Z,22.23
2019-06-01T06:44:16.378Z,22.37
2019-06-01T06:46:47.561Z,22.54
2019-06-01T06:49:19.174Z,22.64
2019-06-01T06:51:50.377Z,22.73
2019-06-01T06:54:21.865Z,22.83
2019-06-01T06:56:52.784Z,22.82
2019-06-01T06:59:24.597Z,22.85
2019-06-01T07:01:55.632Z,22.94
2019-06-01T07:04:27.491Z,23.17
2019-06-01T07:06:58.652Z,23.41
2019-06-01T07:09:29.509Z,23.52
2019-06-01T07:12:00.441Z,23.55
2019-06-01T07:14:31.770Z,23.54
2019-06-01T07:17:03.050Z,23.54
2019-06-01T07:19:34.114Z,23.47
2019-06-01T07:22:05.015Z,23.22
2019-06-01T07:24:36.232Z,23.02
2019-06-01T07:27:07.056Z,22.85
2019-06-01T07:29:38.025Z,22.58
2019-06-01T07:32:09.151Z,22.38
2019-06-01T07:34:42.782Z,22.21
2019-06-01T07:37:13.041Z,22.09
2019-06-01T07:39:43.965Z,22.02
2019-06-01T07:42:14.976Z,21.97
2019-06-01T07:44:45.998Z,21.93
2019-06-01T07:47:16.881Z,22.03
2019-06-01T07:49:47.879Z,22.14
2019-06-01T07:52:20.154Z,22.19
2019-06-01T07:54:51.287Z,22.28
2019-06-01T07:57:23.496Z,22.49
2019-06-01T07:59:54.718Z,22.63
2019-06-01T08:02:27.872Z,22.77
2019-06-01T08:04:58.515Z,22.96
2019-06-01T08:07:29.467Z,23.14
2019-06-01T08:10:00.658Z,23.28
2019-06-01T08:12:31.679Z,23.67
2019-06-01T08:15:06.040Z,24.14
2019-06-01T08:17:37.055Z,24.29
2019-06-01T08:20:08.136Z,24.18
2019-06-01T08:22:39.056Z,24.28
2019-06-01T08:25:10.021Z,24.25
2019-06-01T08:27:44.526Z,24.28
2019-06-01T08:30:16.017Z,24.51
2019-06-01T08:32:46.923Z,24.74
2019-06-01T08:35:17.880Z,24.77
2019-06-01T08:37:48.815Z,24.63
2019-06-01T08:40:19.748Z,24.50
2019-06-01T08:42:50.774Z,24.50
2019-06-01T08:45:21.712Z,24.41
2019-06-01T08:47:52.672Z,24.32
2019-06-01T08:50:23.824Z,24.19
2019-06-01T08:52:54.844Z,24.10
2019-06-01T08:55:26.069Z,24.07
2019-06-01T08:57:57.239Z,24.11
2019-06-01T09:00:28.461Z,24.14
2019-06-01T09:02:59.735Z,24.12
2019-06-01T09:05:31.528Z,24.04
2019-06-01T09:08:02.893Z,23.98
2019-06-01T09:10:35.431Z,24.11
2019-06-01T09:13:06.766Z,24.23
2019-06-01T09:15:37.900Z,24.07
2019-06-01T09:18:08.811Z,24.04
2019-06-01T09:20:39.857Z,24.39
2019-06-01T09:23:11.029Z,24.56
2019-06-01T09:25:42.190Z,24.43
2019-06-01T09:28:13.121Z,24.11
2019-06-01T09:30:44.039Z,23.79
2019-06-01T09:33:15.127Z,23.55
2019-06-01T09:35:55.469Z,23.44
2019-06-01T09:38:19.126Z,23.47
2019-06-01T09:40:50.296Z,23.56
2019-06-01T09:43:21.231Z,23.69
2019-06-01T09:45:53.217Z,23.95
2019-06-01T09:48:24.629Z,24.28
2019-06-01T09:50:55.578Z,24.71
2019-06-01T09:53:28.661Z,24.76
2019-06-01T09:55:59.567Z,24.62
2019-06-01T09:58:30.438Z,24.55
2019-06-01T10:01:01.477Z,24.59
2019-06-01T10:03:32.582Z,24.57
2019-06-01T10:06:03.889Z,24.43
2019-06-01T10:08:36.029Z,24.33
2019-06-01T10:11:07.384Z,24.31
2019-06-01T10:15:21.568Z,24.41
2019-06-01T10:16:19.061Z,24.58
2019-06-01T10:18:50.040Z,24.79
2019-06-01T10:21:21.193Z,25.00
2019-06-01T10:23:52.250Z,25.06
2019-06-01T10:26:23.373Z,24.93
2019-06-01T10:28:54.332Z,24.85
2019-06-01T10:31:25.239Z,24.88
2019-06-01T10:33:56.219Z,25.00
2019-06-01T10:36:27.048Z,25.11
2019-06-01T10:38:58.020Z,25.05
2019-06-01T10:41:28.847Z,24.90
2019-06-01T10:44:00.132Z,24.80
2019-06-01T10:46:31.791Z,24.80
2019-06-01T10:49:03.295Z,24.80
2019-06-01T10:51:34.218Z,24.88
2019-06-01T10:54:05.167Z,24.98
2019-06-01T10:56:36.365Z,25.05
2019-06-01T10:59:07.355Z,25.14
2019-06-01T11:01:38.901Z,25.09
2019-06-01T11:04:10.195Z,24.95
2019-06-01T11:06:47.723Z,24.81
2019-06-01T11:09:14.276Z,24.78
2019-06-01T11:11:45.324Z,24.76
2019-06-01T11:14:16.346Z,24.71
2019-06-01T11:16:52.719Z,24.73
2019-06-01T11:19:20.446Z,24.74
2019-06-01T11:21:51.505Z,24.85
2019-06-01T11:24:22.370Z,24.93
2019-06-01T11:26:53.321Z,24.95
2019-06-01T11:29:24.140Z,24.92
2019-06-01T11:31:55.142Z,24.89
2019-06-01T11:34:26.111Z,24.96
2019-06-01T11:37:05.078Z,25.20
2019-06-01T11:39:30.012Z,25.20
2019-06-01T11:42:00.977Z,25.30
2019-06-01T11:44:31.898Z,25.33
2019-06-01T11:47:02.968Z,25.29
2019-06-01T11:49:34.715Z,25.27
2019-06-01T11:52:05.764Z,25.24
2019-06-01T11:54:37.092Z,25.26
2019-06-01T11:57:08.160Z,25.29
2019-06-01T11:59:39.418Z,25.40
2019-06-01T12:02:10.971Z,25.41
2019-06-01T12:04:42.023Z,25.42
2019-06-01T12:07:17.679Z,25.41
2019-06-01T12:09:46.095Z,25.49
2019-06-01T12:12:17.191Z,25.58
2019-06-01T12:14:48.147Z,25.64
2019-06-01T12:17:19.087Z,25.64
2019-06-01T12:19:49.929Z,25.67
2019-06-01T12:22:20.959Z,25.71
2019-06-01T12:24:51.881Z,25.74
2019-06-01T12:27:22.739Z,25.72
2019-06-01T12:29:53.719Z,25.80
2019-06-01T12:32:24.654Z,25.85
2019-06-01T12:34:55.662Z,25.81
2019-06-01T12:37:45.495Z,25.79
2019-06-01T12:39:59.440Z,25.84
2019-06-01T12:42:30.433Z,25.83
2019-06-01T12:45:02.243Z,25.86
2019-06-01T12:47:33.494Z,25.98
2019-06-01T12:50:07.811Z,26.13
2019-06-01T12:52:40.024Z,26.16
2019-06-01T12:55:11.797Z,26.26
2019-06-01T12:57:42.971Z,26.33
2019-06-01T13:00:15.968Z,26.33
2019-06-01T13:02:56.475Z,26.22
2019-06-01T13:05:20.093Z,26.14
2019-06-01T13:08:01.505Z,26.21
2019-06-01T13:10:24.199Z,26.38
2019-06-01T13:12:55.135Z,26.40
2019-06-01T13:15:26.174Z,26.40
2019-06-01T13:17:57.248Z,26.33
2019-06-01T13:20:28.393Z,26.32
2019-06-01T13:22:59.446Z,26.45
2019-06-01T13:25:30.449Z,26.72
2019-06-01T13:28:01.493Z,27.05
2019-06-01T13:30:32.470Z,27.28
2019-06-01T13:33:03.692Z,27.53
2019-06-01T13:35:34.840Z,27.68
2019-06-01T13:38:12.253Z,27.60
2019-06-01T13:40:38.838Z,27.53
2019-06-01T13:43:09.867Z,27.52
2019-06-01T13:45:41.179Z,27.44
2019-06-01T13:48:12.089Z,27.39
2019-06-01T13:50:43.536Z,27.40
2019-06-01T13:53:14.698Z,27.46
2019-06-01T13:55:46.103Z,27.51
2019-06-01T13:58:17.349Z,27.65
2019-06-01T14:00:48.446Z,27.72
2019-06-01T14:03:19.480Z,27.84
2019-06-01T14:05:50.960Z,27.99
2019-06-01T14:08:29.132Z,28.09
2019-06-01T14:10:55.532Z,27.99
2019-06-01T14:13:26.665Z,27.99
2019-06-01T14:15:57.697Z,27.99
2019-06-01T14:18:28.737Z,28.14
2019-06-01T14:20:59.637Z,28.32
2019-06-01T14:23:30.639Z,28.44
2019-06-01T14:26:01.697Z,28.49
2019-06-01T14:28:32.739Z,28.54
2019-06-01T14:31:03.749Z,28.65
2019-06-01T14:33:34.768Z,29.02
2019-06-01T14:36:05.895Z,29.39
2019-06-01T14:38:46.664Z,29.76
2019-06-01T14:41:09.861Z,29.60
2019-06-01T14:43:40.991Z,29.22
2019-06-01T14:46:12.151Z,28.95
2019-06-01T14:48:43.054Z,28.67
2019-06-01T14:51:14.206Z,28.64
2019-06-01T14:53:45.122Z,28.87
2019-06-01T14:56:16.287Z,28.99
2019-06-01T14:58:47.818Z,29.04
2019-06-01T15:01:31.798Z,29.16
2019-06-01T15:03:52.309Z,29.35
2019-06-01T15:06:23.390Z,29.59
2019-06-01T15:09:10.571Z,29.63
2019-06-01T15:11:27.394Z,29.30
2019-06-01T15:13:58.607Z,29.10
2019-06-01T15:16:29.779Z,29.38
2019-06-01T15:19:01.873Z,29.98
2019-06-01T15:21:33.372Z,30.24
2019-06-01T15:24:04.479Z,30.45
2019-06-01T15:26:35.401Z,30.46
2019-06-01T15:29:06.346Z,30.31
2019-06-01T15:31:37.376Z,30.14
2019-06-01T15:34:08.541Z,29.89
2019-06-01T15:36:39.440Z,29.78
2019-06-01T15:39:24.330Z,29.74
2019-06-01T15:41:43.218Z,29.98
2019-06-01T15:44:14.288Z,30.18
2019-06-01T15:46:45.306Z,30.03
2019-06-01T15:49:16.382Z,30.25
2019-06-01T15:51:47.281Z,30.31
2019-06-01T15:54:18.304Z,30.06
2019-06-01T15:56:52.117Z,29.52
2019-06-01T15:59:23.251Z,29.17
2019-06-01T16:01:54.968Z,29.33
2019-06-01T16:04:26.151Z,29.63
2019-06-01T16:06:57.250Z,29.99
2019-06-01T16:09:42.292Z,30.50
2019-06-01T16:12:02.150Z,30.76
2019-06-01T16:14:33.189Z,30.88
2019-06-01T16:17:04.758Z,30.71
2019-06-01T16:19:35.973Z,30.71
2019-06-01T16:22:07.073Z,30.58
2019-06-01T16:24:38.088Z,29.97
2019-06-01T16:27:09.300Z,29.33
2019-06-01T16:29:40.340Z,29.06
2019-06-01T16:32:11.415Z,29.05
2019-06-01T16:34:42.480Z,29.22
2019-06-01T16:37:13.522Z,29.39
2019-06-01T16:39:58.409Z,29.46
2019-06-01T16:42:17.792Z,29.37
2019-06-01T16:44:48.908Z,29.39
2019-06-01T16:47:19.920Z,29.25
2019-06-01T16:49:51.035Z,28.96
2019-06-01T16:52:22.084Z,28.59
2019-06-01T16:54:53.215Z,28.31
2019-06-01T16:57:24.349Z,28.09
2019-06-01T16:59:56.325Z,28.05
2019-06-01T17:02:27.374Z,27.95
2019-06-01T17:04:58.624Z,27.92
2019-06-01T17:07:29.802Z,27.86
2019-06-01T17:10:19.267Z,27.79
2019-06-01T17:12:33.982Z,27.90
2019-06-01T17:15:07.163Z,27.96
2019-06-01T17:17:38.268Z,27.97
2019-06-01T17:20:34.246Z,27.58
2019-06-01T17:23:18.222Z,27.39
2019-06-01T17:25:38.303Z,27.42
2019-06-01T17:28:09.689Z,27.44
2019-06-01T17:30:40.897Z,27.20
2019-06-01T17:33:12.542Z,26.99
2019-06-01T17:35:43.684Z,26.89
2019-06-01T17:38:15.073Z,26.80
2019-06-01T17:40:46.167Z,26.61
2019-06-01T17:43:17.425Z,26.48
2019-06-01T17:45:48.551Z,26.44
2019-06-01T17:48:26.467Z,26.37
2019-06-01T17:50:52.742Z,26.06
2019-06-01T17:53:23.924Z,25.70
2019-06-01T17:55:55.056Z,25.30
2019-06-01T17:58:26.129Z,24.89
2019-06-01T18:00:57.456Z,24.61
2019-06-01T18:03:28.723Z,24.37
2019-06-01T18:05:59.831Z,24.16
2019-06-01T18:08:30.999Z,23.97
2019-06-01T18:11:02.125Z,23.82
2019-06-01T18:13:33.395Z,23.70
2019-06-01T18:16:04.692Z,23.59
2019-06-01T18:18:35.873Z,23.48
2019-06-01T18:21:06.905Z,23.42
2019-06-01T18:23:37.845Z,23.34
2019-06-01T18:26:09.151Z,23.21
2019-06-01T18:28:40.348Z,23.03
2019-06-01T18:31:11.309Z,22.89
2019-06-01T18:33:42.613Z,22.79
2019-06-01T18:36:13.957Z,22.74
2019-06-01T18:38:45.073Z,22.64
2019-06-01T18:41:19.837Z,22.48
2019-06-01T18:43:49.215Z,22.35
2019-06-01T18:46:20.150Z,22.25
2019-06-01T18:48:51.231Z,22.10
2019-06-01T18:51:22.193Z,22.00
2019-06-01T18:53:53.263Z,21.91
2019-06-01T18:56:24.083Z,21.84
2019-06-01T18:58:55.154Z,21.71
2019-06-01T19:01:27.101Z,21.62
2019-06-01T19:03:58.152Z,21.54
2019-06-01T19:06:29.159Z,21.46
2019-06-01T19:09:02.786Z,21.38
2019-06-01T19:11:36.114Z,21.26
2019-06-01T19:14:07.880Z,21.18
2019-06-01T19:16:40.025Z,21.08
2019-06-01T19:19:12.517Z,20.96
2019-06-01T19:21:43.566Z,20.87
2019-06-01T19:24:14.716Z,20.78
2019-06-01T19:26:45.993Z,20.69
2019-06-01T19:29:17.002Z,20.61
2019-06-01T19:31:48.253Z,20.52
2019-06-01T19:34:19.225Z,20.42
2019-06-01T19:36:52.177Z,20.33
2019-06-01T19:39:23.664Z,20.26
2019-06-01T19:41:58.154Z,20.19
2019-06-01T19:44:28.391Z,20.10
2019-06-01T19:46:59.507Z,20.02
2019-06-01T19:49:30.571Z,19.96
2019-06-01T19:52:01.475Z,19.87
2019-06-01T19:54:32.725Z,19.80
2019-06-01T19:57:03.849Z,19.73
2019-06-01T19:59:34.698Z,19.67
2019-06-01T20:02:22.561Z,19.60
2019-06-01T20:04:38.695Z,19.56
2019-06-01T20:07:11.000Z,19.47
2019-06-01T20:09:42.261Z,19.43
2019-06-01T20:12:16.347Z,19.37
2019-06-01T20:14:46.988Z,19.31
2019-06-01T20:17:17.921Z,19.25
2019-06-01T20:19:49.017Z,19.18
2019-06-01T20:22:21.401Z,19.13
2019-06-01T20:24:52.327Z,19.07
2019-06-01T20:27:23.535Z,19.03
2019-06-01T20:29:54.476Z,18.95
2019-06-01T20:32:25.549Z,18.91
2019-06-01T20:34:56.567Z,18.88
2019-06-01T20:37:27.607Z,18.83
2019-06-01T20:39:58.627Z,18.79
2019-06-01T20:42:32.222Z,18.76
2019-06-01T20:45:04.758Z,18.71
2019-06-01T20:47:35.866Z,18.67
2019-06-01T20:50:07.990Z,18.62
2019-06-01T20:52:38.865Z,18.57
2019-06-01T20:55:10.310Z,18.54
2019-06-01T20:57:41.306Z,18.50
2019-06-01T21:00:13.628Z,18.47
2019-06-01T21:02:44.760Z,18.42
2019-06-01T21:05:15.904Z,18.40
2019-06-01T21:07:47.011Z,18.36
2019-06-01T21:10:20.496Z,18.32
2019-06-01T21:12:51.595Z,18.29
2019-06-01T21:15:23.402Z,18.27
2019-06-01T21:17:54.443Z,18.25
2019-06-01T21:20:29.835Z,18.22
2019-06-01T21:22:58.637Z,18.21
2019-06-01T21:25:29.778Z,18.18
2019-06-01T21:28:00.666Z,18.15
2019-06-01T21:30:31.715Z,18.13
2019-06-01T21:33:02.837Z,18.08
2019-06-01T21:35:33.684Z,18.08
2019-06-01T21:38:05.074Z,18.07
2019-06-01T21:40:36.274Z,18.06
2019-06-01T21:43:23.510Z,18.06
2019-06-01T21:45:40.180Z,18.05
2019-06-01T21:48:11.277Z,18.04
2019-06-01T21:50:42.423Z,18.00
2019-06-01T21:53:13.620Z,17.96
2019-06-01T21:55:44.524Z,17.92
2019-06-01T21:58:16.464Z,17.89
2019-06-01T22:00:48.283Z,17.85
2019-06-01T22:03:20.960Z,17.82
2019-06-01T22:05:52.628Z,17.76
2019-06-01T22:08:23.808Z,17.72
2019-06-01T22:10:54.746Z,17.69
2019-06-01T22:13:27.143Z,17.65
2019-06-01T22:15:58.633Z,17.61
2019-06-01T22:18:29.672Z,17.56
2019-06-01T22:21:00.697Z,17.51
2019-06-01T22:23:31.841Z,17.47
2019-06-01T22:26:03.371Z,17.42
2019-06-01T22:28:36.222Z,17.37
2019-06-01T22:31:07.321Z,17.32
2019-06-01T22:33:38.502Z,17.27
2019-06-01T22:36:09.496Z,17.21
2019-06-01T22:38:40.529Z,17.14
2019-06-01T22:41:11.522Z,17.07
2019-06-01T22:43:46.880Z,17.02
2019-06-01T22:46:15.398Z,16.96
2019-06-01T22:48:46.449Z,16.90
2019-06-01T22:51:17.442Z,16.86
2019-06-01T22:53:48.443Z,16.84
2019-06-01T22:56:19.453Z,16.81
2019-06-01T22:58:51.677Z,16.80
2019-06-01T23:01:22.908Z,16.79
2019-06-01T23:03:54.024Z,16.79
2019-06-01T23:06:24.992Z,16.82
2019-06-01T23:08:55.986Z,16.85
2019-06-01T23:11:27.539Z,16.90
2019-06-01T23:13:58.719Z,16.92
2019-06-01T23:16:29.821Z,16.97
2019-06-01T23:19:00.888Z,16.98
2019-06-01T23:21:32.084Z,16.99
2019-06-01T23:24:03.301Z,17.03
2019-06-01T23:26:34.138Z,17.06
2019-06-01T23:29:05.315Z,17.10
2019-06-01T23:31:36.208Z,17.13
2019-06-01T23:34:07.141Z,17.17
2019-06-01T23:36:38.245Z,17.17
2019-06-01T23:39:09.282Z,17.19
2019-06-01T23:41:40.389Z,17.20
2019-06-01T23:44:12.660Z,17.19
2019-06-01T23:46:44.185Z,17.16
2019-06-01T23:49:15.219Z,17.13
2019-06-01T23:51:46.238Z,17.10
2019-06-01T23:54:20.023Z,17.08
2019-06-01T23:56:51.030Z,17.01
2019-06-01T23:59:21.959Z,16.96
